sensor_id;sensor_type;location;lat;lon;timestamp;P1;durP1;ratioP1;P2;durP2;ratioP2
11628;SDS011;5870;52.320;4.970;2022-07-23T00:01:30;3.92;;;2.13;;
11628;SDS011;5870;52.320;4.970;2022-07-23T00:03:56;2.63;;;1.67;;
11628;SDS011;5870;52.320;4.970;2022-07-23T00:06:22;5.38;;;1.63;;
11628;SDS011;5870;52.320;4.970;2022-07-23T00:08:49;2.08;;;1.70;;
11628;SDS011;5870;52.320;4.970;2022-07-23T00:11:15;5.18;;;1.73;;
11628;SDS011;5870;52.320;4.970;2022-07-23T00:13:40;2.97;;;1.60;;
11628;SDS011;5870;52.320;4.970;2022-07-23T00:16:06;1.70;;;1.58;;
11628;SDS011;5870;52.320;4.970;2022-07-23T00:18:32;3.03;;;1.60;;
11628;SDS011;5870;52.320;4.970;2022-07-23T00:20:58;3.13;;;1.67;;
11628;SDS011;5870;52.320;4.970;2022-07-23T00:23:24;1.92;;;1.63;;
11628;SDS011;5870;52.320;4.970;2022-07-23T00:25:50;6.03;;;1.80;;
11628;SDS011;5870;52.320;4.970;2022-07-23T00:28:17;2.45;;;1.40;;
11628;SDS011;5870;52.320;4.970;2022-07-23T00:30:43;3.22;;;1.35;;
11628;SDS011;5870;52.320;4.970;2022-07-23T00:33:09;2.83;;;1.50;;
11628;SDS011;5870;52.320;4.970;2022-07-23T00:35:36;3.53;;;1.75;;
11628;SDS011;5870;52.320;4.970;2022-07-23T00:38:05;2.38;;;1.40;;
11628;SDS011;5870;52.320;4.970;2022-07-23T00:40:32;6.68;;;1.50;;
11628;SDS011;5870;52.320;4.970;2022-07-23T00:42:58;2.85;;;1.40;;
11628;SDS011;5870;52.320;4.970;2022-07-23T00:45:24;2.78;;;1.75;;
11628;SDS011;5870;52.320;4.970;2022-07-23T00:47:50;3.42;;;1.92;;
11628;SDS011;5870;52.320;4.970;2022-07-23T00:50:16;2.63;;;1.63;;
11628;SDS011;5870;52.320;4.970;2022-07-23T00:52:42;2.10;;;1.40;;
11628;SDS011;5870;52.320;4.970;2022-07-23T00:55:10;2.63;;;1.63;;
11628;SDS011;5870;52.320;4.970;2022-07-23T00:57:36;3.65;;;1.90;;
11628;SDS011;5870;52.320;4.970;2022-07-23T01:00:07;6.75;;;1.45;;
11628;SDS011;5870;52.320;4.970;2022-07-23T01:02:35;5.18;;;2.00;;
11628;SDS011;5870;52.320;4.970;2022-07-23T01:05:02;4.10;;;1.77;;
11628;SDS011;5870;52.320;4.970;2022-07-23T01:07:28;4.88;;;1.55;;
11628;SDS011;5870;52.320;4.970;2022-07-23T01:09:53;4.38;;;1.45;;
11628;SDS011;5870;52.320;4.970;2022-07-23T01:12:20;2.88;;;1.30;;
11628;SDS011;5870;52.320;4.970;2022-07-23T01:14:52;2.08;;;1.45;;
11628;SDS011;5870;52.320;4.970;2022-07-23T01:17:22;4.60;;;1.70;;
11628;SDS011;5870;52.320;4.970;2022-07-23T01:19:48;1.70;;;1.60;;
11628;SDS011;5870;52.320;4.970;2022-07-23T01:22:14;3.33;;;1.60;;
11628;SDS011;5870;52.320;4.970;2022-07-23T01:24:42;2.42;;;1.38;;
11628;SDS011;5870;52.320;4.970;2022-07-23T01:27:08;2.58;;;1.42;;
11628;SDS011;5870;52.320;4.970;2022-07-23T01:29:34;2.35;;;1.13;;
11628;SDS011;5870;52.320;4.970;2022-07-23T01:31:59;4.82;;;1.77;;
11628;SDS011;5870;52.320;4.970;2022-07-23T01:34:25;3.28;;;1.48;;
11628;SDS011;5870;52.320;4.970;2022-07-23T01:36:50;1.98;;;1.20;;
11628;SDS011;5870;52.320;4.970;2022-07-23T01:39:16;1.77;;;1.33;;
11628;SDS011;5870;52.320;4.970;2022-07-23T01:41:42;4.35;;;1.40;;
11628;SDS011;5870;52.320;4.970;2022-07-23T01:44:07;3.53;;;1.42;;
11628;SDS011;5870;52.320;4.970;2022-07-23T01:46:33;4.15;;;1.88;;
11628;SDS011;5870;52.320;4.970;2022-07-23T01:48:58;1.52;;;1.42;;
11628;SDS011;5870;52.320;4.970;2022-07-23T01:51:24;5.03;;;1.42;;
11628;SDS011;5870;52.320;4.970;2022-07-23T01:53:50;2.17;;;1.23;;
11628;SDS011;5870;52.320;4.970;2022-07-23T01:56:15;5.32;;;1.40;;
11628;SDS011;5870;52.320;4.970;2022-07-23T01:58:41;1.30;;;1.20;;
11628;SDS011;5870;52.320;4.970;2022-07-23T02:01:06;3.80;;;1.25;;
11628;SDS011;5870;52.320;4.970;2022-07-23T02:03:32;1.40;;;1.20;;
11628;SDS011;5870;52.320;4.970;2022-07-23T02:05:57;3.55;;;1.40;;
11628;SDS011;5870;52.320;4.970;2022-07-23T02:08:23;4.20;;;1.50;;
11628;SDS011;5870;52.320;4.970;2022-07-23T02:10:49;3.00;;;1.00;;
11628;SDS011;5870;52.320;4.970;2022-07-23T02:13:16;4.93;;;1.48;;
11628;SDS011;5870;52.320;4.970;2022-07-23T02:15:42;1.73;;;1.10;;
11628;SDS011;5870;52.320;4.970;2022-07-23T02:18:08;7.93;;;1.65;;
11628;SDS011;5870;52.320;4.970;2022-07-23T02:20:33;2.80;;;1.50;;
11628;SDS011;5870;52.320;4.970;2022-07-23T02:22:59;1.48;;;1.05;;
11628;SDS011;5870;52.320;4.970;2022-07-23T02:25:25;4.80;;;1.10;;
11628;SDS011;5870;52.320;4.970;2022-07-23T02:27:50;1.58;;;1.20;;
11628;SDS011;5870;52.320;4.970;2022-07-23T02:30:16;1.27;;;1.17;;
11628;SDS011;5870;52.320;4.970;2022-07-23T02:32:41;2.30;;;1.40;;
11628;SDS011;5870;52.320;4.970;2022-07-23T02:35:07;3.83;;;1.60;;
11628;SDS011;5870;52.320;4.970;2022-07-23T02:37:33;2.88;;;1.00;;
11628;SDS011;5870;52.320;4.970;2022-07-23T02:39:58;1.83;;;1.27;;
11628;SDS011;5870;52.320;4.970;2022-07-23T02:42:24;2.95;;;1.15;;
11628;SDS011;5870;52.320;4.970;2022-07-23T02:44:50;2.38;;;1.45;;
11628;SDS011;5870;52.320;4.970;2022-07-23T02:47:16;3.50;;;0.90;;
11628;SDS011;5870;52.320;4.970;2022-07-23T02:49:42;1.23;;;1.13;;
11628;SDS011;5870;52.320;4.970;2022-07-23T02:52:07;1.95;;;1.15;;
11628;SDS011;5870;52.320;4.970;2022-07-23T02:54:35;4.88;;;1.45;;
11628;SDS011;5870;52.320;4.970;2022-07-23T02:57:01;2.70;;;1.15;;
11628;SDS011;5870;52.320;4.970;2022-07-23T02:59:27;5.18;;;1.38;;
11628;SDS011;5870;52.320;4.970;2022-07-23T03:01:52;1.05;;;1.00;;
11628;SDS011;5870;52.320;4.970;2022-07-23T03:04:18;3.67;;;1.20;;
11628;SDS011;5870;52.320;4.970;2022-07-23T03:06:44;3.22;;;1.20;;
11628;SDS011;5870;52.320;4.970;2022-07-23T03:09:09;2.25;;;1.45;;
11628;SDS011;5870;52.320;4.970;2022-07-23T03:11:35;2.60;;;1.30;;
11628;SDS011;5870;52.320;4.970;2022-07-23T03:14:00;3.60;;;1.30;;
11628;SDS011;5870;52.320;4.970;2022-07-23T03:16:26;4.63;;;1.30;;
11628;SDS011;5870;52.320;4.970;2022-07-23T03:18:51;1.77;;;1.33;;
11628;SDS011;5870;52.320;4.970;2022-07-23T03:21:17;3.33;;;1.10;;
11628;SDS011;5870;52.320;4.970;2022-07-23T03:23:43;2.15;;;1.25;;
11628;SDS011;5870;52.320;4.970;2022-07-23T03:26:08;1.90;;;1.05;;
11628;SDS011;5870;52.320;4.970;2022-07-23T03:28:34;1.15;;;1.05;;
11628;SDS011;5870;52.320;4.970;2022-07-23T03:30:59;1.92;;;1.17;;
11628;SDS011;5870;52.320;4.970;2022-07-23T03:33:25;1.60;;;1.17;;
11628;SDS011;5870;52.320;4.970;2022-07-23T03:35:51;3.90;;;1.67;;
11628;SDS011;5870;52.320;4.970;2022-07-23T03:38:16;5.43;;;1.65;;
11628;SDS011;5870;52.320;4.970;2022-07-23T03:40:42;2.95;;;1.75;;
11628;SDS011;5870;52.320;4.970;2022-07-23T03:43:07;4.20;;;1.83;;
11628;SDS011;5870;52.320;4.970;2022-07-23T03:45:33;1.85;;;1.50;;
11628;SDS011;5870;52.320;4.970;2022-07-23T03:47:59;4.97;;;1.98;;
11628;SDS011;5870;52.320;4.970;2022-07-23T03:50:25;3.80;;;2.00;;
11628;SDS011;5870;52.320;4.970;2022-07-23T03:52:51;3.17;;;1.95;;
11628;SDS011;5870;52.320;4.970;2022-07-23T03:55:16;4.30;;;1.85;;
11628;SDS011;5870;52.320;4.970;2022-07-23T03:57:42;4.05;;;1.65;;
11628;SDS011;5870;52.320;4.970;2022-07-23T04:00:09;2.90;;;1.75;;
11628;SDS011;5870;52.320;4.970;2022-07-23T04:02:36;2.55;;;1.60;;
11628;SDS011;5870;52.320;4.970;2022-07-23T04:05:02;5.63;;;1.75;;
11628;SDS011;5870;52.320;4.970;2022-07-23T04:07:29;3.22;;;1.60;;
11628;SDS011;5870;52.320;4.970;2022-07-23T04:09:55;2.40;;;1.70;;
11628;SDS011;5870;52.320;4.970;2022-07-23T04:12:21;4.43;;;1.35;;
11628;SDS011;5870;52.320;4.970;2022-07-23T04:14:47;6.00;;;2.08;;
11628;SDS011;5870;52.320;4.970;2022-07-23T04:17:12;3.03;;;1.60;;
11628;SDS011;5870;52.320;4.970;2022-07-23T04:19:38;3.33;;;1.33;;
11628;SDS011;5870;52.320;4.970;2022-07-23T04:22:06;4.55;;;1.65;;
11628;SDS011;5870;52.320;4.970;2022-07-23T04:24:33;3.80;;;1.70;;
11628;SDS011;5870;52.320;4.970;2022-07-23T04:26:59;4.95;;;1.40;;
11628;SDS011;5870;52.320;4.970;2022-07-23T04:29:24;1.63;;;1.25;;
11628;SDS011;5870;52.320;4.970;2022-07-23T04:31:50;2.55;;;1.27;;
11628;SDS011;5870;52.320;4.970;2022-07-23T04:34:16;2.22;;;1.20;;
11628;SDS011;5870;52.320;4.970;2022-07-23T04:36:41;3.42;;;1.33;;
11628;SDS011;5870;52.320;4.970;2022-07-23T04:39:07;1.25;;;1.15;;
11628;SDS011;5870;52.320;4.970;2022-07-23T04:41:33;2.95;;;1.58;;
11628;SDS011;5870;52.320;4.970;2022-07-23T04:43:59;3.88;;;1.90;;
11628;SDS011;5870;52.320;4.970;2022-07-23T04:46:25;1.40;;;1.10;;
11628;SDS011;5870;52.320;4.970;2022-07-23T04:48:51;1.23;;;0.85;;
11628;SDS011;5870;52.320;4.970;2022-07-23T04:51:16;1.75;;;1.25;;
11628;SDS011;5870;52.320;4.970;2022-07-23T04:53:42;2.42;;;1.30;;
11628;SDS011;5870;52.320;4.970;2022-07-23T04:56:08;2.05;;;1.02;;
11628;SDS011;5870;52.320;4.970;2022-07-23T04:58:33;1.77;;;1.25;;
11628;SDS011;5870;52.320;4.970;2022-07-23T05:00:59;1.77;;;1.20;;
11628;SDS011;5870;52.320;4.970;2022-07-23T05:03:25;3.42;;;1.40;;
11628;SDS011;5870;52.320;4.970;2022-07-23T05:05:51;4.85;;;1.50;;
11628;SDS011;5870;52.320;4.970;2022-07-23T05:08:16;2.88;;;1.67;;
11628;SDS011;5870;52.320;4.970;2022-07-23T05:10:42;2.67;;;1.92;;
11628;SDS011;5870;52.320;4.970;2022-07-23T05:13:07;7.95;;;2.17;;
11628;SDS011;5870;52.320;4.970;2022-07-23T05:15:33;5.22;;;1.40;;
11628;SDS011;5870;52.320;4.970;2022-07-23T05:17:58;4.15;;;2.03;;
11628;SDS011;5870;52.320;4.970;2022-07-23T05:20:24;2.15;;;1.58;;
11628;SDS011;5870;52.320;4.970;2022-07-23T05:22:50;3.47;;;1.60;;
11628;SDS011;5870;52.320;4.970;2022-07-23T05:25:16;2.38;;;1.48;;
11628;SDS011;5870;52.320;4.970;2022-07-23T05:27:41;4.18;;;1.55;;
11628;SDS011;5870;52.320;4.970;2022-07-23T05:30:07;3.97;;;1.70;;
11628;SDS011;5870;52.320;4.970;2022-07-23T05:32:33;1.65;;;1.10;;
11628;SDS011;5870;52.320;4.970;2022-07-23T05:34:58;1.70;;;1.00;;
11628;SDS011;5870;52.320;4.970;2022-07-23T05:37:24;3.20;;;1.30;;
11628;SDS011;5870;52.320;4.970;2022-07-23T05:39:50;4.10;;;1.67;;
11628;SDS011;5870;52.320;4.970;2022-07-23T05:42:16;2.42;;;0.93;;
11628;SDS011;5870;52.320;4.970;2022-07-23T05:44:42;5.78;;;1.27;;
11628;SDS011;5870;52.320;4.970;2022-07-23T05:47:07;3.72;;;1.50;;
11628;SDS011;5870;52.320;4.970;2022-07-23T05:49:33;2.22;;;1.15;;
11628;SDS011;5870;52.320;4.970;2022-07-23T05:52:02;3.13;;;1.20;;
11628;SDS011;5870;52.320;4.970;2022-07-23T05:54:28;2.00;;;1.08;;
11628;SDS011;5870;52.320;4.970;2022-07-23T05:56:54;2.05;;;1.00;;
11628;SDS011;5870;52.320;4.970;2022-07-23T05:59:19;2.22;;;1.05;;
11628;SDS011;5870;52.320;4.970;2022-07-23T06:01:45;9.60;;;1.15;;
11628;SDS011;5870;52.320;4.970;2022-07-23T06:04:11;1.40;;;1.08;;
11628;SDS011;5870;52.320;4.970;2022-07-23T06:06:36;1.67;;;1.00;;
11628;SDS011;5870;52.320;4.970;2022-07-23T06:09:02;1.20;;;0.88;;
11628;SDS011;5870;52.320;4.970;2022-07-23T06:11:28;2.75;;;1.05;;
11628;SDS011;5870;52.320;4.970;2022-07-23T06:13:54;2.83;;;1.17;;
11628;SDS011;5870;52.320;4.970;2022-07-23T06:16:20;1.85;;;0.88;;
11628;SDS011;5870;52.320;4.970;2022-07-23T06:18:45;0.75;;;0.75;;
11628;SDS011;5870;52.320;4.970;2022-07-23T06:21:11;4.80;;;1.58;;
11628;SDS011;5870;52.320;4.970;2022-07-23T06:23:36;4.13;;;1.20;;
11628;SDS011;5870;52.320;4.970;2022-07-23T06:26:02;2.28;;;1.00;;
11628;SDS011;5870;52.320;4.970;2022-07-23T06:28:28;3.03;;;1.08;;
11628;SDS011;5870;52.320;4.970;2022-07-23T06:30:53;2.08;;;1.10;;
11628;SDS011;5870;52.320;4.970;2022-07-23T06:33:19;0.80;;;0.68;;
11628;SDS011;5870;52.320;4.970;2022-07-23T06:35:44;1.42;;;0.80;;
11628;SDS011;5870;52.320;4.970;2022-07-23T06:38:10;2.03;;;1.08;;
11628;SDS011;5870;52.320;4.970;2022-07-23T06:40:35;1.83;;;0.88;;
11628;SDS011;5870;52.320;4.970;2022-07-23T06:43:01;2.63;;;0.95;;
11628;SDS011;5870;52.320;4.970;2022-07-23T06:45:26;5.65;;;1.40;;
11628;SDS011;5870;52.320;4.970;2022-07-23T06:47:52;2.03;;;1.00;;
11628;SDS011;5870;52.320;4.970;2022-07-23T06:50:18;1.95;;;1.10;;
11628;SDS011;5870;52.320;4.970;2022-07-23T06:52:43;0.90;;;0.82;;
11628;SDS011;5870;52.320;4.970;2022-07-23T06:55:09;2.63;;;0.90;;
11628;SDS011;5870;52.320;4.970;2022-07-23T06:57:35;2.72;;;1.00;;
11628;SDS011;5870;52.320;4.970;2022-07-23T07:00:00;3.35;;;1.10;;
11628;SDS011;5870;52.320;4.970;2022-07-23T07:02:26;8.48;;;1.20;;
11628;SDS011;5870;52.320;4.970;2022-07-23T07:04:52;10.38;;;1.23;;
11628;SDS011;5870;52.320;4.970;2022-07-23T07:07:18;2.05;;;1.30;;
11628;SDS011;5870;52.320;4.970;2022-07-23T07:09:43;3.22;;;1.10;;
11628;SDS011;5870;52.320;4.970;2022-07-23T07:12:09;2.33;;;1.10;;
11628;SDS011;5870;52.320;4.970;2022-07-23T07:14:36;1.52;;;1.33;;
11628;SDS011;5870;52.320;4.970;2022-07-23T07:17:02;4.43;;;0.82;;
11628;SDS011;5870;52.320;4.970;2022-07-23T07:19:28;4.28;;;1.25;;
11628;SDS011;5870;52.320;4.970;2022-07-23T07:21:53;1.88;;;0.90;;
11628;SDS011;5870;52.320;4.970;2022-07-23T07:24:19;4.88;;;1.45;;
11628;SDS011;5870;52.320;4.970;2022-07-23T07:26:44;1.58;;;1.10;;
11628;SDS011;5870;52.320;4.970;2022-07-23T07:29:10;1.15;;;0.90;;
11628;SDS011;5870;52.320;4.970;2022-07-23T07:31:36;1.50;;;1.08;;
11628;SDS011;5870;52.320;4.970;2022-07-23T07:34:02;1.30;;;1.20;;
11628;SDS011;5870;52.320;4.970;2022-07-23T07:36:28;0.85;;;0.85;;
11628;SDS011;5870;52.320;4.970;2022-07-23T07:38:54;1.98;;;1.02;;
11628;SDS011;5870;52.320;4.970;2022-07-23T07:41:19;1.50;;;1.10;;
11628;SDS011;5870;52.320;4.970;2022-07-23T07:43:49;2.72;;;1.13;;
11628;SDS011;5870;52.320;4.970;2022-07-23T07:46:15;1.65;;;1.00;;
11628;SDS011;5870;52.320;4.970;2022-07-23T07:48:40;1.52;;;0.90;;
11628;SDS011;5870;52.320;4.970;2022-07-23T07:51:06;1.08;;;0.75;;
11628;SDS011;5870;52.320;4.970;2022-07-23T07:53:32;1.75;;;0.98;;
11628;SDS011;5870;52.320;4.970;2022-07-23T07:55:58;2.65;;;1.17;;
11628;SDS011;5870;52.320;4.970;2022-07-23T07:58:23;2.45;;;1.00;;
11628;SDS011;5870;52.320;4.970;2022-07-23T08:00:49;4.00;;;0.98;;
11628;SDS011;5870;52.320;4.970;2022-07-23T08:03:16;1.08;;;0.82;;
11628;SDS011;5870;52.320;4.970;2022-07-23T08:05:41;1.30;;;0.93;;
11628;SDS011;5870;52.320;4.970;2022-07-23T08:08:07;1.98;;;1.00;;
11628;SDS011;5870;52.320;4.970;2022-07-23T08:10:34;0.68;;;0.68;;
11628;SDS011;5870;52.320;4.970;2022-07-23T08:13:00;1.00;;;0.80;;
11628;SDS011;5870;52.320;4.970;2022-07-23T08:15:26;4.60;;;0.90;;
11628;SDS011;5870;52.320;4.970;2022-07-23T08:17:53;2.28;;;1.00;;
11628;SDS011;5870;52.320;4.970;2022-07-23T08:20:20;1.45;;;0.82;;
11628;SDS011;5870;52.320;4.970;2022-07-23T08:22:57;2.22;;;1.00;;
11628;SDS011;5870;52.320;4.970;2022-07-23T08:25:26;1.60;;;0.88;;
11628;SDS011;5870;52.320;4.970;2022-07-23T08:27:54;1.48;;;0.90;;
11628;SDS011;5870;52.320;4.970;2022-07-23T08:30:20;3.53;;;1.00;;
11628;SDS011;5870;52.320;4.970;2022-07-23T08:35:22;4.80;;;1.48;;
11628;SDS011;5870;52.320;4.970;2022-07-23T08:37:49;1.95;;;1.00;;
11628;SDS011;5870;52.320;4.970;2022-07-23T08:40:15;2.28;;;0.70;;
11628;SDS011;5870;52.320;4.970;2022-07-23T08:42:40;0.80;;;0.80;;
11628;SDS011;5870;52.320;4.970;2022-07-23T08:45:07;1.40;;;1.02;;
11628;SDS011;5870;52.320;4.970;2022-07-23T08:47:34;2.97;;;1.00;;
11628;SDS011;5870;52.320;4.970;2022-07-23T08:50:02;1.38;;;0.90;;
11628;SDS011;5870;52.320;4.970;2022-07-23T08:52:28;1.77;;;1.00;;
11628;SDS011;5870;52.320;4.970;2022-07-23T08:54:55;4.25;;;1.02;;
11628;SDS011;5870;52.320;4.970;2022-07-23T08:57:22;4.25;;;1.85;;
11628;SDS011;5870;52.320;4.970;2022-07-23T08:59:47;6.47;;;4.43;;
11628;SDS011;5870;52.320;4.970;2022-07-23T09:02:13;11.10;;;6.35;;
11628;SDS011;5870;52.320;4.970;2022-07-23T09:04:38;10.95;;;7.88;;
11628;SDS011;5870;52.320;4.970;2022-07-23T09:07:04;11.50;;;7.43;;
11628;SDS011;5870;52.320;4.970;2022-07-23T09:09:30;9.73;;;5.20;;
11628;SDS011;5870;52.320;4.970;2022-07-23T09:12:03;16.20;;;5.53;;
11628;SDS011;5870;52.320;4.970;2022-07-23T09:14:40;5.53;;;3.63;;
11628;SDS011;5870;52.320;4.970;2022-07-23T09:17:08;4.18;;;3.08;;
11628;SDS011;5870;52.320;4.970;2022-07-23T09:19:37;4.47;;;2.72;;
11628;SDS011;5870;52.320;4.970;2022-07-23T09:22:23;4.85;;;3.05;;
11628;SDS011;5870;52.320;4.970;2022-07-23T09:27:56;2.58;;;1.48;;
11628;SDS011;5870;52.320;4.970;2022-07-23T09:30:25;4.55;;;1.48;;
11628;SDS011;5870;52.320;4.970;2022-07-23T09:35:53;1.75;;;1.35;;
11628;SDS011;5870;52.320;4.970;2022-07-23T09:38:21;1.58;;;1.13;;
11628;SDS011;5870;52.320;4.970;2022-07-23T09:41:05;4.60;;;1.27;;
11628;SDS011;5870;52.320;4.970;2022-07-23T09:43:31;2.88;;;1.27;;
11628;SDS011;5870;52.320;4.970;2022-07-23T09:48:56;1.15;;;1.05;;
11628;SDS011;5870;52.320;4.970;2022-07-23T09:51:22;1.83;;;1.02;;
11628;SDS011;5870;52.320;4.970;2022-07-23T09:54:01;4.15;;;1.25;;
11628;SDS011;5870;52.320;4.970;2022-07-23T09:56:27;4.20;;;1.27;;
11628;SDS011;5870;52.320;4.970;2022-07-23T09:58:53;1.40;;;1.30;;
11628;SDS011;5870;52.320;4.970;2022-07-23T10:01:52;2.83;;;1.13;;
11628;SDS011;5870;52.320;4.970;2022-07-23T10:04:21;1.65;;;1.20;;
11628;SDS011;5870;52.320;4.970;2022-07-23T10:06:48;2.45;;;2.05;;
11628;SDS011;5870;52.320;4.970;2022-07-23T10:09:24;10.23;;;6.60;;
11628;SDS011;5870;52.320;4.970;2022-07-23T10:11:58;12.05;;;7.43;;
11628;SDS011;5870;52.320;4.970;2022-07-23T10:14:47;11.20;;;6.20;;
11628;SDS011;5870;52.320;4.970;2022-07-23T10:17:14;7.32;;;4.88;;
11628;SDS011;5870;52.320;4.970;2022-07-23T10:19:39;5.72;;;3.58;;
11628;SDS011;5870;52.320;4.970;2022-07-23T10:22:13;7.40;;;2.60;;
11628;SDS011;5870;52.320;4.970;2022-07-23T10:24:46;4.32;;;2.47;;
11628;SDS011;5870;52.320;4.970;2022-07-23T10:29:55;3.65;;;1.50;;
11628;SDS011;5870;52.320;4.970;2022-07-23T10:32:35;3.88;;;1.92;;
11628;SDS011;5870;52.320;4.970;2022-07-23T10:35:46;1.60;;;1.50;;
11628;SDS011;5870;52.320;4.970;2022-07-23T10:41:03;3.03;;;1.60;;
11628;SDS011;5870;52.320;4.970;2022-07-23T10:43:29;3.70;;;1.60;;
11628;SDS011;5870;52.320;4.970;2022-07-23T10:45:56;2.47;;;1.20;;
11628;SDS011;5870;52.320;4.970;2022-07-23T10:48:41;3.08;;;1.80;;
11628;SDS011;5870;52.320;4.970;2022-07-23T10:51:11;2.75;;;1.40;;
11628;SDS011;5870;52.320;4.970;2022-07-23T10:56:16;1.02;;;1.02;;
11628;SDS011;5870;52.320;4.970;2022-07-23T10:59:05;1.27;;;1.17;;
11628;SDS011;5870;52.320;4.970;2022-07-23T11:01:35;6.65;;;1.30;;
11628;SDS011;5870;52.320;4.970;2022-07-23T11:04:02;3.58;;;1.70;;
11628;SDS011;5870;52.320;4.970;2022-07-23T11:07:15;4.50;;;2.13;;
11628;SDS011;5870;52.320;4.970;2022-07-23T11:09:26;18.67;;;13.85;;
11628;SDS011;5870;52.320;4.970;2022-07-23T11:12:31;24.33;;;16.30;;
11628;SDS011;5870;52.320;4.970;2022-07-23T11:15:15;9.13;;;6.70;;
11628;SDS011;5870;52.320;4.970;2022-07-23T11:22:46;5.38;;;2.95;;
11628;SDS011;5870;52.320;4.970;2022-07-23T11:25:27;4.10;;;2.10;;
11628;SDS011;5870;52.320;4.970;2022-07-23T11:28:07;3.05;;;2.05;;
11628;SDS011;5870;52.320;4.970;2022-07-23T11:30:46;2.55;;;1.40;;
11628;SDS011;5870;52.320;4.970;2022-07-23T11:33:15;4.57;;;2.03;;
11628;SDS011;5870;52.320;4.970;2022-07-23T11:35:43;2.17;;;1.50;;
11628;SDS011;5870;52.320;4.970;2022-07-23T11:38:20;2.78;;;1.67;;
11628;SDS011;5870;52.320;4.970;2022-07-23T11:40:51;2.72;;;1.48;;
11628;SDS011;5870;52.320;4.970;2022-07-23T11:43:19;5.95;;;1.27;;
11628;SDS011;5870;52.320;4.970;2022-07-23T11:45:47;4.70;;;1.65;;
11628;SDS011;5870;52.320;4.970;2022-07-23T11:48:25;1.65;;;1.10;;
11628;SDS011;5870;52.320;4.970;2022-07-23T11:50:52;3.30;;;1.58;;
11628;SDS011;5870;52.320;4.970;2022-07-23T11:53:29;6.18;;;1.30;;
11628;SDS011;5870;52.320;4.970;2022-07-23T11:56:08;2.80;;;1.60;;
11628;SDS011;5870;52.320;4.970;2022-07-23T11:58:36;3.70;;;1.20;;
11628;SDS011;5870;52.320;4.970;2022-07-23T12:01:03;1.80;;;1.45;;
11628;SDS011;5870;52.320;4.970;2022-07-23T12:03:29;5.80;;;1.70;;
11628;SDS011;5870;52.320;4.970;2022-07-23T12:05:58;3.70;;;1.60;;
11628;SDS011;5870;52.320;4.970;2022-07-23T12:08:25;2.90;;;1.50;;
11628;SDS011;5870;52.320;4.970;2022-07-23T12:10:50;4.30;;;1.73;;
11628;SDS011;5870;52.320;4.970;2022-07-23T12:13:19;1.60;;;1.50;;
11628;SDS011;5870;52.320;4.970;2022-07-23T12:15:48;4.28;;;1.45;;
11628;SDS011;5870;52.320;4.970;2022-07-23T12:18:18;3.22;;;1.40;;
11628;SDS011;5870;52.320;4.970;2022-07-23T12:20:47;2.65;;;1.15;;
11628;SDS011;5870;52.320;4.970;2022-07-23T12:23:16;1.90;;;1.50;;
11628;SDS011;5870;52.320;4.970;2022-07-23T12:25:45;2.30;;;1.25;;
11628;SDS011;5870;52.320;4.970;2022-07-23T12:28:12;6.78;;;1.98;;
11628;SDS011;5870;52.320;4.970;2022-07-23T12:30:43;1.80;;;1.40;;
11628;SDS011;5870;52.320;4.970;2022-07-23T12:33:25;5.25;;;1.63;;
11628;SDS011;5870;52.320;4.970;2022-07-23T12:35:54;4.25;;;1.95;;
11628;SDS011;5870;52.320;4.970;2022-07-23T12:38:27;2.55;;;1.48;;
11628;SDS011;5870;52.320;4.970;2022-07-23T12:40:57;3.45;;;1.50;;
11628;SDS011;5870;52.320;4.970;2022-07-23T12:43:34;2.60;;;1.67;;
11628;SDS011;5870;52.320;4.970;2022-07-23T12:48:53;7.18;;;1.70;;
11628;SDS011;5870;52.320;4.970;2022-07-23T12:51:19;4.22;;;1.27;;
11628;SDS011;5870;52.320;4.970;2022-07-23T12:53:47;4.07;;;1.70;;
11628;SDS011;5870;52.320;4.970;2022-07-23T12:56:16;2.50;;;1.73;;
11628;SDS011;5870;52.320;4.970;2022-07-23T13:03:54;13.82;;;1.52;;
11628;SDS011;5870;52.320;4.970;2022-07-23T13:06:21;2.42;;;1.38;;
11628;SDS011;5870;52.320;4.970;2022-07-23T13:08:47;2.72;;;1.70;;
11628;SDS011;5870;52.320;4.970;2022-07-23T13:11:12;1.50;;;1.40;;
11628;SDS011;5870;52.320;4.970;2022-07-23T13:13:38;3.35;;;1.60;;
11628;SDS011;5870;52.320;4.970;2022-07-23T13:16:04;4.75;;;1.67;;
11628;SDS011;5870;52.320;4.970;2022-07-23T13:18:30;1.73;;;1.40;;
11628;SDS011;5870;52.320;4.970;2022-07-23T13:20:55;2.63;;;1.67;;
11628;SDS011;5870;52.320;4.970;2022-07-23T13:23:21;6.10;;;1.80;;
11628;SDS011;5870;52.320;4.970;2022-07-23T13:25:47;2.08;;;1.60;;
11628;SDS011;5870;52.320;4.970;2022-07-23T13:28:14;5.35;;;1.52;;
11628;SDS011;5870;52.320;4.970;2022-07-23T13:30:40;1.65;;;1.40;;
11628;SDS011;5870;52.320;4.970;2022-07-23T13:33:07;1.52;;;1.33;;
11628;SDS011;5870;52.320;4.970;2022-07-23T13:35:33;3.08;;;1.55;;
11628;SDS011;5870;52.320;4.970;2022-07-23T13:38:00;5.15;;;1.60;;
11628;SDS011;5870;52.320;4.970;2022-07-23T13:40:25;2.00;;;1.50;;
11628;SDS011;5870;52.320;4.970;2022-07-23T13:42:51;2.30;;;1.27;;
11628;SDS011;5870;52.320;4.970;2022-07-23T13:45:17;6.07;;;1.60;;
11628;SDS011;5870;52.320;4.970;2022-07-23T13:47:42;2.13;;;1.88;;
11628;SDS011;5870;52.320;4.970;2022-07-23T13:50:08;3.53;;;1.50;;
11628;SDS011;5870;52.320;4.970;2022-07-23T13:52:34;4.55;;;1.50;;
11628;SDS011;5870;52.320;4.970;2022-07-23T13:55:00;2.78;;;1.60;;
11628;SDS011;5870;52.320;4.970;2022-07-23T13:57:27;3.78;;;1.40;;
11628;SDS011;5870;52.320;4.970;2022-07-23T13:59:52;2.15;;;1.52;;
11628;SDS011;5870;52.320;4.970;2022-07-23T14:02:18;3.97;;;1.70;;
11628;SDS011;5870;52.320;4.970;2022-07-23T14:04:44;1.58;;;1.35;;
11628;SDS011;5870;52.320;4.970;2022-07-23T14:07:09;2.25;;;1.27;;
11628;SDS011;5870;52.320;4.970;2022-07-23T14:09:35;1.98;;;1.38;;
11628;SDS011;5870;52.320;4.970;2022-07-23T14:12:02;1.75;;;1.40;;
11628;SDS011;5870;52.320;4.970;2022-07-23T14:14:28;1.85;;;1.63;;
11628;SDS011;5870;52.320;4.970;2022-07-23T14:16:54;2.72;;;2.03;;
11628;SDS011;5870;52.320;4.970;2022-07-23T14:19:20;2.90;;;1.75;;
11628;SDS011;5870;52.320;4.970;2022-07-23T14:21:46;5.00;;;1.70;;
11628;SDS011;5870;52.320;4.970;2022-07-23T14:24:13;2.08;;;1.70;;
11628;SDS011;5870;52.320;4.970;2022-07-23T14:26:39;1.33;;;1.23;;
11628;SDS011;5870;52.320;4.970;2022-07-23T14:29:05;2.40;;;1.83;;
11628;SDS011;5870;52.320;4.970;2022-07-23T14:31:31;7.30;;;1.95;;
11628;SDS011;5870;52.320;4.970;2022-07-23T14:33:57;4.47;;;1.88;;
11628;SDS011;5870;52.320;4.970;2022-07-23T14:36:22;7.22;;;2.00;;
11628;SDS011;5870;52.320;4.970;2022-07-23T14:38:49;2.55;;;1.75;;
11628;SDS011;5870;52.320;4.970;2022-07-23T14:41:14;6.13;;;1.88;;
11628;SDS011;5870;52.320;4.970;2022-07-23T14:43:40;17.67;;;11.30;;
11628;SDS011;5870;52.320;4.970;2022-07-23T14:46:06;28.95;;;17.83;;
11628;SDS011;5870;52.320;4.970;2022-07-23T14:48:31;23.60;;;15.95;;
11628;SDS011;5870;52.320;4.970;2022-07-23T14:50:57;10.05;;;7.97;;
11628;SDS011;5870;52.320;4.970;2022-07-23T14:53:23;3.10;;;2.47;;
11628;SDS011;5870;52.320;4.970;2022-07-23T14:55:48;3.92;;;2.03;;
11628;SDS011;5870;52.320;4.970;2022-07-23T14:58:14;2.03;;;1.83;;
11628;SDS011;5870;52.320;4.970;2022-07-23T15:00:39;2.00;;;1.55;;
11628;SDS011;5870;52.320;4.970;2022-07-23T15:03:05;3.67;;;1.77;;
11628;SDS011;5870;52.320;4.970;2022-07-23T15:05:31;1.77;;;1.40;;
11628;SDS011;5870;52.320;4.970;2022-07-23T15:07:56;2.20;;;1.67;;
11628;SDS011;5870;52.320;4.970;2022-07-23T15:10:22;1.95;;;1.65;;
11628;SDS011;5870;52.320;4.970;2022-07-23T15:12:48;2.80;;;1.60;;
11628;SDS011;5870;52.320;4.970;2022-07-23T15:15:14;2.85;;;2.00;;
11628;SDS011;5870;52.320;4.970;2022-07-23T15:17:40;3.10;;;2.00;;
11628;SDS011;5870;52.320;4.970;2022-07-23T15:20:06;2.25;;;1.70;;
11628;SDS011;5870;52.320;4.970;2022-07-23T15:22:32;2.30;;;1.65;;
11628;SDS011;5870;52.320;4.970;2022-07-23T15:24:58;4.30;;;1.75;;
11628;SDS011;5870;52.320;4.970;2022-07-23T15:27:24;5.90;;;2.08;;
11628;SDS011;5870;52.320;4.970;2022-07-23T15:29:49;3.08;;;1.92;;
11628;SDS011;5870;52.320;4.970;2022-07-23T15:32:15;3.90;;;1.95;;
11628;SDS011;5870;52.320;4.970;2022-07-23T15:34:41;7.05;;;2.15;;